createdAt,value
2018-02-13T00:03:51.974Z,1.20
2018-02-13T00:07:54.514Z,1.20
2018-02-13T00:11:57.024Z,1.20
2018-02-13T00:16:00.329Z,1.10
2018-02-13T00:20:03.617Z,1.10
2018-02-13T00:24:06.147Z,1.10
2018-02-13T00:28:08.675Z,1.10
2018-02-13T00:32:11.216Z,1.20
2018-02-13T00:36:13.724Z,1.20
2018-02-13T00:40:16.248Z,1.30
2018-02-13T00:44:18.767Z,1.30
2018-02-13T00:48:21.283Z,1.30
2018-02-13T00:52:23.816Z,1.40
2018-02-13T00:56:27.119Z,1.50
2018-02-13T01:00:30.250Z,1.50
2018-02-13T01:04:32.764Z,1.50
2018-02-13T01:08:35.297Z,1.50
2018-02-13T01:12:38.658Z,1.50
2018-02-13T01:16:41.991Z,1.50
2018-02-13T01:20:44.507Z,1.50
2018-02-13T01:24:47.806Z,1.40
2018-02-13T01:28:51.149Z,1.40
2018-02-13T01:32:53.654Z,1.40
2018-02-13T01:36:56.173Z,1.40
2018-02-13T01:40:59.748Z,1.40
2018-02-13T01:45:02.443Z,1.30
2018-02-13T01:49:04.978Z,1.30
2018-02-13T01:53:07.497Z,1.30
2018-02-13T01:57:10.059Z,1.30
2018-02-13T02:01:12.587Z,1.30
2018-02-13T02:05:15.128Z,1.40
2018-02-13T02:09:17.640Z,1.40
2018-02-13T02:13:20.180Z,1.40
2018-02-13T02:17:23.465Z,1.30
2018-02-13T02:21:25.998Z,1.30
2018-02-13T02:25:28.534Z,1.30
2018-02-13T02:29:31.041Z,1.20
2018-02-13T02:33:34.394Z,1.20
2018-02-13T02:37:36.887Z,1.20
2018-02-13T02:41:39.408Z,1.30
2018-02-13T02:45:42.698Z,1.20
2018-02-13T02:49:45.250Z,1.20
2018-02-13T02:53:47.765Z,1.20
2018-02-13T02:57:50.316Z,1.20
2018-02-13T03:01:52.841Z,1.10
2018-02-13T03:05:55.352Z,1.10
2018-02-13T03:09:58.640Z,1.10
2018-02-13T03:14:01.167Z,1.10
2018-02-13T03:18:03.688Z,1.20
2018-02-13T03:22:06.223Z,1.20
2018-02-13T03:26:08.748Z,1.20
2018-02-13T03:30:11.289Z,1.20
2018-02-13T03:34:13.809Z,1.30
2018-02-13T03:38:16.341Z,1.30
2018-02-13T03:42:19.635Z,1.30
2018-02-13T03:46:22.231Z,1.30
2018-02-13T03:50:24.768Z,1.40
2018-02-13T03:54:27.296Z,1.40
2018-02-13T03:58:29.868Z,1.40
2018-02-13T04:02:32.387Z,1.40
2018-02-13T04:06:35.666Z,1.30
2018-02-13T04:10:38.195Z,1.30
2018-02-13T04:14:40.696Z,1.30
2018-02-13T04:18:43.221Z,1.30
2018-02-13T04:22:45.745Z,1.30
2018-02-13T04:26:48.269Z,1.20
2018-02-13T04:30:50.780Z,1.20
2018-02-13T04:34:53.311Z,1.30
2018-02-13T04:38:55.831Z,1.40
2018-02-13T04:42:58.377Z,1.40
2018-02-13T04:47:00.883Z,1.40
2018-02-13T04:51:03.415Z,1.30
2018-02-13T04:55:06.889Z,1.30
2018-02-13T04:59:09.429Z,1.20
2018-02-13T05:03:12.719Z,1.10
2018-02-13T05:07:15.243Z,1.10
2018-02-13T05:11:17.764Z,1.00
2018-02-13T05:15:21.078Z,1.10
2018-02-13T05:19:23.618Z,1.10
2018-02-13T05:23:26.156Z,1.10
2018-02-13T05:27:28.752Z,1.10
2018-02-13T05:31:31.291Z,1.10
2018-02-13T05:35:33.818Z,1.20
2018-02-13T05:39:36.401Z,1.20
2018-02-13T05:43:38.908Z,1.20
2018-02-13T05:47:42.214Z,1.30
2018-02-13T05:51:45.507Z,1.30
2018-02-13T05:55:48.787Z,1.30
2018-02-13T05:59:51.333Z,1.30
2018-02-13T06:03:53.839Z,1.30
2018-02-13T06:07:56.389Z,1.30
2018-02-13T06:11:58.904Z,1.30
2018-02-13T06:16:01.440Z,1.30
2018-02-13T06:20:04.823Z,1.20
2018-02-13T06:24:07.353Z,1.20
2018-02-13T06:28:09.880Z,1.20
2018-02-13T06:32:12.451Z,1.10
2018-02-13T06:36:14.990Z,1.10
2018-02-13T06:40:18.301Z,1.10
2018-02-13T06:44:21.597Z,1.10
2018-02-13T06:48:24.118Z,1.00
2018-02-13T06:52:26.711Z,1.00
2018-02-13T06:56:29.228Z,1.10
2018-02-13T07:00:31.771Z,1.10
2018-02-13T07:04:34.297Z,1.10
2018-02-13T07:08:36.842Z,1.10
2018-02-13T07:12:39.368Z,1.10
2018-02-13T07:16:42.701Z,1.00
2018-02-13T07:20:45.241Z,1.00
2018-02-13T07:24:47.801Z,1.00
2018-02-13T07:28:50.416Z,1.10
2018-02-13T07:32:52.978Z,1.10
2018-02-13T07:36:55.495Z,1.10
2018-02-13T07:40:58.038Z,1.10
2018-02-13T07:45:01.322Z,1.10
2018-02-13T07:49:03.871Z,1.10
2018-02-13T07:53:06.380Z,1.10
2018-02-13T07:57:08.914Z,1.10
2018-02-13T08:01:11.421Z,1.30
2018-02-13T08:05:13.956Z,1.40
2018-02-13T08:09:17.259Z,1.60
2018-02-13T08:13:20.592Z,2.10
2018-02-13T08:17:23.106Z,2.10
2018-02-13T08:21:25.634Z,3.30
2018-02-13T08:25:28.146Z,4.70
2018-02-13T08:29:30.690Z,5.70
2018-02-13T08:33:33.195Z,6.10
2018-02-13T08:37:36.488Z,6.90
2018-02-13T08:41:39.029Z,6.90
2018-02-13T08:45:41.560Z,7.40
2018-02-13T08:49:44.099Z,7.90
2018-02-13T08:53:46.621Z,8.70
2018-02-13T08:57:49.143Z,8.40
2018-02-13T09:01:52.440Z,8.20
2018-02-13T09:05:55.722Z,8.20
2018-02-13T09:09:58.267Z,8.20
2018-02-13T09:14:00.783Z,8.70
2018-02-13T09:18:03.310Z,8.60
2018-02-13T09:22:06.597Z,8.90
2018-02-13T09:26:09.880Z,9.20
2018-02-13T09:30:12.393Z,9.20
2018-02-13T09:34:15.749Z,9.00
2018-02-13T09:38:18.257Z,9.00
2018-02-13T09:42:20.795Z,8.60
2018-02-13T09:46:23.371Z,8.70
2018-02-13T09:50:26.506Z,8.90
2018-02-13T09:54:29.041Z,8.70
2018-02-13T09:58:33.144Z,8.20
2018-02-13T10:02:35.655Z,8.20
2018-02-13T10:06:38.964Z,7.70
2018-02-13T10:10:42.254Z,7.40
2018-02-13T10:14:45.566Z,7.10
2018-02-13T10:18:48.832Z,7.00
2018-02-13T10:22:51.643Z,7.00
2018-02-13T10:26:55.070Z,6.10
2018-02-13T10:30:58.377Z,5.90
2018-02-13T10:35:00.885Z,5.90
2018-02-13T10:39:03.430Z,5.80
2018-02-13T10:43:06.704Z,6.30
2018-02-13T10:47:09.243Z,6.30
2018-02-13T10:51:11.884Z,6.40
2018-02-13T10:55:14.423Z,6.50
2018-02-13T10:59:16.943Z,6.70
2018-02-13T11:03:19.460Z,6.70
2018-02-13T11:07:21.978Z,6.90
2018-02-13T11:11:24.534Z,6.80
2018-02-13T11:15:27.037Z,6.80
2018-02-13T11:19:30.348Z,6.70
2018-02-13T11:23:33.003Z,6.70
2018-02-13T11:27:35.576Z,6.30
2018-02-13T11:31:38.085Z,6.20
2018-02-13T11:35:40.661Z,6.10
2018-02-13T11:39:43.185Z,6.00
2018-02-13T11:43:45.716Z,5.90
2018-02-13T11:47:48.250Z,5.90
2018-02-13T11:51:51.546Z,5.70
2018-02-13T11:55:54.857Z,5.70
2018-02-13T11:59:58.171Z,5.80
2018-02-13T12:04:00.740Z,5.80
2018-02-13T12:08:04.049Z,5.70
2018-02-13T12:12:07.352Z,5.60
2018-02-13T12:16:10.649Z,5.50
2018-02-13T12:20:13.979Z,5.40
2018-02-13T12:24:16.780Z,5.40
2018-02-13T12:28:19.636Z,5.40
2018-02-13T12:32:23.021Z,5.40
2018-02-13T12:36:25.901Z,5.30
2018-02-13T12:40:28.565Z,5.40
2018-02-13T12:44:31.117Z,5.30
2018-02-13T12:48:35.156Z,5.10
2018-02-13T12:52:37.679Z,5.00
2018-02-13T12:56:40.269Z,5.00
2018-02-13T13:00:42.802Z,5.00
2018-02-13T13:04:46.203Z,4.90
2018-02-13T13:08:49.498Z,4.80
2018-02-13T13:12:52.815Z,4.80
2018-02-13T13:16:56.208Z,4.80
2018-02-13T13:20:59.164Z,4.80
2018-02-13T13:25:01.782Z,4.80
2018-02-13T13:29:05.414Z,4.80
2018-02-13T13:33:08.041Z,4.80
2018-02-13T13:37:10.802Z,4.80
2018-02-13T13:41:13.501Z,4.80
2018-02-13T13:45:16.230Z,4.70
2018-02-13T13:49:19.456Z,4.70
2018-02-13T13:53:22.118Z,4.80
2018-02-13T13:57:24.717Z,4.70
2018-02-13T14:01:27.326Z,4.60
2018-02-13T14:05:29.910Z,4.60
2018-02-13T14:09:32.486Z,4.50
2018-02-13T14:13:35.125Z,4.50
2018-02-13T14:17:37.722Z,4.50
2018-02-13T14:21:42.305Z,4.50
2018-02-13T14:25:44.935Z,4.50
2018-02-13T14:29:47.545Z,4.40
2018-02-13T14:33:51.209Z,4.40
2018-02-13T14:37:55.115Z,4.40
2018-02-13T14:42:01.232Z,4.20
2018-02-13T14:46:03.939Z,4.20
2018-02-13T14:50:07.442Z,4.20
2018-02-13T14:54:10.301Z,4.10
2018-02-13T14:58:13.005Z,4.20
2018-02-13T15:02:15.620Z,4.10
2018-02-13T15:06:19.004Z,4.00
2018-02-13T15:10:21.603Z,4.00
2018-02-13T15:14:24.336Z,4.10
2018-02-13T15:18:38.294Z,4.00
2018-02-13T15:22:40.887Z,3.90
2018-02-13T15:26:44.197Z,3.90
2018-02-13T15:30:46.841Z,3.80
2018-02-13T15:34:49.483Z,3.70
2018-02-13T15:38:53.040Z,3.70
2018-02-13T15:42:55.610Z,3.70
2018-02-13T15:47:11.074Z,3.60
2018-02-13T15:51:13.639Z,3.50
2018-02-13T15:55:17.057Z,3.40
2018-02-13T15:59:20.518Z,3.40
2018-02-13T16:03:23.276Z,3.30
2018-02-13T16:07:25.952Z,3.30
2018-02-13T16:11:28.868Z,3.20
2018-02-13T16:15:31.742Z,3.10
2018-02-13T16:19:35.168Z,2.90
2018-02-13T16:23:38.038Z,2.90
2018-02-13T16:27:41.029Z,2.80
2018-02-13T16:31:44.416Z,2.70
2018-02-13T16:35:47.718Z,2.70
2018-02-13T16:39:50.463Z,2.60
2018-02-13T16:43:53.119Z,2.50
2018-02-13T16:47:56.487Z,2.40
2018-02-13T16:51:59.058Z,2.40
2018-02-13T16:56:01.584Z,2.30
2018-02-13T17:00:04.132Z,2.30
2018-02-13T17:04:06.703Z,2.20
2018-02-13T17:08:09.243Z,2.20
2018-02-13T17:12:11.813Z,2.10
2018-02-13T17:16:14.330Z,2.00
2018-02-13T17:20:17.676Z,2.00
2018-02-13T17:24:20.191Z,1.90
2018-02-13T17:28:22.778Z,1.90
2018-02-13T17:32:25.301Z,1.90
2018-02-13T17:36:28.611Z,1.80
2018-02-13T17:40:31.914Z,1.80
2018-02-13T17:44:35.236Z,1.80
2018-02-13T17:48:37.790Z,1.80
2018-02-13T17:52:41.108Z,1.70
2018-02-13T17:56:44.469Z,1.70
2018-02-13T18:00:47.019Z,1.70
2018-02-13T18:04:49.799Z,1.60
2018-02-13T18:08:52.316Z,1.60
2018-02-13T18:12:54.854Z,1.60
2018-02-13T18:16:58.160Z,1.50
2018-02-13T18:21:01.476Z,1.50
2018-02-13T18:25:04.042Z,1.50
2018-02-13T18:29:07.355Z,1.50
2018-02-13T18:33:10.702Z,1.50
2018-02-13T18:37:13.267Z,1.50
2018-02-13T18:41:15.801Z,1.50
2018-02-13T18:45:18.351Z,1.50
2018-02-13T18:49:20.971Z,1.40
2018-02-13T18:53:23.512Z,1.40
2018-02-13T18:57:26.066Z,1.30
2018-02-13T19:01:28.604Z,1.30
2018-02-13T19:05:31.353Z,1.30
2018-02-13T19:09:34.657Z,1.20
2018-02-13T19:13:37.981Z,1.20
2018-02-13T19:17:40.508Z,1.20
2018-02-13T19:21:43.074Z,1.20
2018-02-13T19:25:45.599Z,1.20
2018-02-13T19:29:48.140Z,1.20
2018-02-13T19:33:50.672Z,1.20
2018-02-13T19:37:53.219Z,1.10
2018-02-13T19:41:55.755Z,1.20
2018-02-13T19:45:58.320Z,1.10
2018-02-13T19:50:01.164Z,1.10
2018-02-13T19:54:03.760Z,1.10
2018-02-13T19:58:07.057Z,1.10
2018-02-13T20:02:09.629Z,1.00
2018-02-13T20:06:12.233Z,1.00
2018-02-13T20:10:14.820Z,1.00
2018-02-13T20:14:17.445Z,1.00
2018-02-13T20:18:20.028Z,1.00
2018-02-13T20:22:22.774Z,0.90
2018-02-13T20:26:25.523Z,0.90
2018-02-13T20:30:28.147Z,0.90
2018-02-13T20:34:31.475Z,0.90
2018-02-13T20:38:34.076Z,0.80
2018-02-13T20:42:36.651Z,0.80
2018-02-13T20:46:39.379Z,0.80
2018-02-13T20:50:42.916Z,0.80
2018-02-13T20:54:46.254Z,0.70
2018-02-13T20:58:49.575Z,0.80
2018-02-13T21:02:52.225Z,0.70
2018-02-13T21:06:54.824Z,0.70
2018-02-13T21:10:57.374Z,0.70
2018-02-13T21:14:59.902Z,0.60
2018-02-13T21:19:02.469Z,0.60
2018-02-13T21:23:05.794Z,0.50
2018-02-13T21:27:08.329Z,0.50
2018-02-13T21:31:10.930Z,0.50
2018-02-13T21:35:14.362Z,0.50
2018-02-13T21:39:16.900Z,0.40
2018-02-13T21:43:19.438Z,0.40
2018-02-13T21:47:21.990Z,0.40
2018-02-13T21:51:24.556Z,0.40
2018-02-13T21:55:27.629Z,0.30
2018-02-13T21:59:30.322Z,0.30
2018-02-13T22:03:32.896Z,0.30
2018-02-13T22:07:35.424Z,0.30
2018-02-13T22:11:38.115Z,0.30
2018-02-13T22:15:40.877Z,0.30
2018-02-13T22:19:45.066Z,0.20
2018-02-13T22:23:48.373Z,0.20
2018-02-13T22:27:51.686Z,0.20
2018-02-13T22:31:54.215Z,0.20
2018-02-13T22:35:56.752Z,0.10
2018-02-13T22:40:00.047Z,0.10
2018-02-13T22:44:02.598Z,0.10
2018-02-13T22:48:05.119Z,0.10
2018-02-13T22:52:08.522Z,0.00
2018-02-13T22:56:11.799Z,0.00
2018-02-13T23:00:14.331Z,0.00
2018-02-13T23:04:17.957Z,-0.10
2018-02-13T23:08:20.488Z,-0.10
2018-02-13T23:12:23.045Z,-0.10
2018-02-13T23:16:25.552Z,-0.10
2018-02-13T23:20:28.100Z,-0.10
2018-02-13T23:24:30.614Z,-0.10
2018-02-13T23:28:33.204Z,-0.20
2018-02-13T23:32:35.730Z,-0.20
2018-02-13T23:36:39.072Z,-0.30
2018-02-13T23:40:41.641Z,-0.30
2018-02-13T23:44:44.191Z,-0.30
2018-02-13T23:48:46.758Z,-0.40
2018-02-13T23:52:49.286Z,-0.40
2018-02-13T23:56:51.851Z,-0.50
